sensor_id;sensor_type;location;lat;lon;timestamp;P1;durP1;ratioP1;P2;durP2;ratioP2
50976;SDS011;36992;48.200;12.418;2023-11-18T00:00:45;2.08;;;1.00;;
50976;SDS011;36992;48.200;12.418;2023-11-18T00:03:12;2.15;;;1.25;;
50976;SDS011;36992;48.200;12.418;2023-11-18T00:05:38;2.95;;;1.55;;
50976;SDS011;36992;48.200;12.418;2023-11-18T00:08:05;3.00;;;1.05;;
50976;SDS011;36992;48.200;12.418;2023-11-18T00:10:31;2.85;;;1.40;;
50976;SDS011;36992;48.200;12.418;2023-11-18T00:12:58;2.40;;;1.20;;
50976;SDS011;36992;48.200;12.418;2023-11-18T00:15:26;4.60;;;2.20;;
50976;SDS011;36992;48.200;12.418;2023-11-18T00:17:54;2.30;;;1.00;;
50976;SDS011;36992;48.200;12.418;2023-11-18T00:20:21;3.58;;;2.00;;
50976;SDS011;36992;48.200;12.418;2023-11-18T00:22:49;2.60;;;1.67;;
50976;SDS011;36992;48.200;12.418;2023-11-18T00:25:16;4.47;;;1.83;;
50976;SDS011;36992;48.200;12.418;2023-11-18T00:27:42;3.00;;;1.13;;
50976;SDS011;36992;48.200;12.418;2023-11-18T00:30:09;2.60;;;1.35;;
50976;SDS011;36992;48.200;12.418;2023-11-18T00:32:36;2.10;;;1.40;;
50976;SDS011;36992;48.200;12.418;2023-11-18T00:35:05;2.80;;;1.50;;
50976;SDS011;36992;48.200;12.418;2023-11-18T00:37:33;3.13;;;1.42;;
50976;SDS011;36992;48.200;12.418;2023-11-18T00:40:00;3.47;;;1.80;;
50976;SDS011;36992;48.200;12.418;2023-11-18T00:42:26;2.33;;;1.50;;
50976;SDS011;36992;48.200;12.418;2023-11-18T00:44:53;3.90;;;1.65;;
50976;SDS011;36992;48.200;12.418;2023-11-18T00:47:20;3.88;;;2.03;;
50976;SDS011;36992;48.200;12.418;2023-11-18T00:49:48;4.05;;;1.73;;
50976;SDS011;36992;48.200;12.418;2023-11-18T00:52:16;3.40;;;1.85;;
50976;SDS011;36992;48.200;12.418;2023-11-18T00:54:43;3.25;;;1.65;;
50976;SDS011;36992;48.200;12.418;2023-11-18T00:57:10;4.28;;;2.40;;
50976;SDS011;36992;48.200;12.418;2023-11-18T00:59:36;3.38;;;1.50;;
50976;SDS011;36992;48.200;12.418;2023-11-18T01:02:07;3.50;;;2.00;;
50976;SDS011;36992;48.200;12.418;2023-11-18T01:04:34;3.20;;;1.70;;
50976;SDS011;36992;48.200;12.418;2023-11-18T01:07:00;4.70;;;1.77;;
50976;SDS011;36992;48.200;12.418;2023-11-18T01:09:29;3.90;;;2.22;;
50976;SDS011;36992;48.200;12.418;2023-11-18T01:12:01;2.80;;;1.40;;
50976;SDS011;36992;48.200;12.418;2023-11-18T01:14:28;3.47;;;2.13;;
50976;SDS011;36992;48.200;12.418;2023-11-18T01:16:55;3.30;;;2.25;;
50976;SDS011;36992;48.200;12.418;2023-11-18T01:19:21;3.15;;;1.85;;
50976;SDS011;36992;48.200;12.418;2023-11-18T01:21:48;2.42;;;1.42;;
50976;SDS011;36992;48.200;12.418;2023-11-18T01:24:16;2.45;;;1.48;;
50976;SDS011;36992;48.200;12.418;2023-11-18T01:26:45;2.28;;;1.08;;
50976;SDS011;36992;48.200;12.418;2023-11-18T01:29:11;2.58;;;1.50;;
50976;SDS011;36992;48.200;12.418;2023-11-18T01:31:38;1.85;;;1.05;;
50976;SDS011;36992;48.200;12.418;2023-11-18T01:34:06;4.90;;;1.42;;
50976;SDS011;36992;48.200;12.418;2023-11-18T01:36:33;2.75;;;1.35;;
50976;SDS011;36992;48.200;12.418;2023-11-18T01:38:59;4.63;;;1.20;;
50976;SDS011;36992;48.200;12.418;2023-11-18T01:41:26;3.08;;;1.27;;
50976;SDS011;36992;48.200;12.418;2023-11-18T01:43:55;2.75;;;1.30;;
50976;SDS011;36992;48.200;12.418;2023-11-18T01:46:22;1.67;;;0.93;;
50976;SDS011;36992;48.200;12.418;2023-11-18T01:48:48;2.63;;;1.35;;
50976;SDS011;36992;48.200;12.418;2023-11-18T01:51:16;3.45;;;1.92;;
50976;SDS011;36992;48.200;12.418;2023-11-18T01:53:46;2.22;;;1.50;;
50976;SDS011;36992;48.200;12.418;2023-11-18T01:56:15;3.70;;;1.70;;
50976;SDS011;36992;48.200;12.418;2023-11-18T01:58:42;2.60;;;1.60;;
50976;SDS011;36992;48.200;12.418;2023-11-18T02:01:10;1.80;;;1.27;;
50976;SDS011;36992;48.200;12.418;2023-11-18T02:03:37;2.83;;;1.58;;
50976;SDS011;36992;48.200;12.418;2023-11-18T02:06:05;2.38;;;1.45;;
50976;SDS011;36992;48.200;12.418;2023-11-18T02:08:35;2.28;;;1.25;;
50976;SDS011;36992;48.200;12.418;2023-11-18T02:14:00;3.05;;;1.40;;
50976;SDS011;36992;48.200;12.418;2023-11-18T02:16:30;2.63;;;1.67;;
50976;SDS011;36992;48.200;12.418;2023-11-18T02:18:57;3.03;;;1.95;;
50976;SDS011;36992;48.200;12.418;2023-11-18T02:21:26;4.50;;;1.70;;
50976;SDS011;36992;48.200;12.418;2023-11-18T02:23:53;3.00;;;1.52;;
50976;SDS011;36992;48.200;12.418;2023-11-18T02:26:22;2.58;;;1.50;;
50976;SDS011;36992;48.200;12.418;2023-11-18T02:28:48;3.22;;;1.45;;
50976;SDS011;36992;48.200;12.418;2023-11-18T02:31:16;2.35;;;1.25;;
50976;SDS011;36992;48.200;12.418;2023-11-18T02:33:50;2.47;;;1.33;;
50976;SDS011;36992;48.200;12.418;2023-11-18T02:39:01;2.10;;;0.95;;
50976;SDS011;36992;48.200;12.418;2023-11-18T02:41:33;1.85;;;1.15;;
50976;SDS011;36992;48.200;12.418;2023-11-18T02:44:01;3.38;;;1.90;;
50976;SDS011;36992;48.200;12.418;2023-11-18T02:46:33;2.97;;;1.50;;
50976;SDS011;36992;48.200;12.418;2023-11-18T02:49:01;3.53;;;1.80;;
50976;SDS011;36992;48.200;12.418;2023-11-18T02:51:28;3.50;;;1.80;;
50976;SDS011;36992;48.200;12.418;2023-11-18T02:53:56;2.60;;;1.58;;
50976;SDS011;36992;48.200;12.418;2023-11-18T02:56:23;3.92;;;2.20;;
50976;SDS011;36992;48.200;12.418;2023-11-18T02:58:50;2.83;;;1.67;;
50976;SDS011;36992;48.200;12.418;2023-11-18T03:01:17;2.67;;;1.52;;
50976;SDS011;36992;48.200;12.418;2023-11-18T03:03:44;2.67;;;1.75;;
50976;SDS011;36992;48.200;12.418;2023-11-18T03:06:11;3.28;;;2.33;;
50976;SDS011;36992;48.200;12.418;2023-11-18T03:08:37;2.90;;;2.20;;
50976;SDS011;36992;48.200;12.418;2023-11-18T03:11:06;2.50;;;1.70;;
50976;SDS011;36992;48.200;12.418;2023-11-18T03:13:34;3.17;;;1.98;;
50976;SDS011;36992;48.200;12.418;2023-11-18T03:16:05;2.83;;;1.88;;
50976;SDS011;36992;48.200;12.418;2023-11-18T03:18:36;4.63;;;1.92;;
50976;SDS011;36992;48.200;12.418;2023-11-18T03:21:03;3.05;;;2.20;;
50976;SDS011;36992;48.200;12.418;2023-11-18T03:23:31;4.88;;;2.25;;
50976;SDS011;36992;48.200;12.418;2023-11-18T03:25:58;3.97;;;1.90;;
50976;SDS011;36992;48.200;12.418;2023-11-18T03:28:24;3.22;;;1.42;;
50976;SDS011;36992;48.200;12.418;2023-11-18T03:30:51;2.55;;;1.70;;
50976;SDS011;36992;48.200;12.418;2023-11-18T03:33:20;3.08;;;1.50;;
50976;SDS011;36992;48.200;12.418;2023-11-18T03:35:46;3.55;;;1.80;;
50976;SDS011;36992;48.200;12.418;2023-11-18T03:38:13;3.58;;;1.75;;
50976;SDS011;36992;48.200;12.418;2023-11-18T03:40:42;2.28;;;1.20;;
50976;SDS011;36992;48.200;12.418;2023-11-18T03:43:10;2.72;;;1.33;;
50976;SDS011;36992;48.200;12.418;2023-11-18T03:45:38;2.40;;;1.50;;
50976;SDS011;36992;48.200;12.418;2023-11-18T03:48:04;2.38;;;1.40;;
50976;SDS011;36992;48.200;12.418;2023-11-18T03:50:32;2.85;;;1.38;;
50976;SDS011;36992;48.200;12.418;2023-11-18T03:52:59;2.28;;;1.35;;
50976;SDS011;36992;48.200;12.418;2023-11-18T03:55:26;4.35;;;1.88;;
50976;SDS011;36992;48.200;12.418;2023-11-18T03:57:53;1.88;;;1.38;;
50976;SDS011;36992;48.200;12.418;2023-11-18T04:00:20;2.50;;;1.30;;
50976;SDS011;36992;48.200;12.418;2023-11-18T04:02:46;3.15;;;1.60;;
50976;SDS011;36992;48.200;12.418;2023-11-18T04:05:13;3.08;;;1.40;;
50976;SDS011;36992;48.200;12.418;2023-11-18T04:07:41;2.65;;;1.25;;
50976;SDS011;36992;48.200;12.418;2023-11-18T04:10:08;4.57;;;1.90;;
50976;SDS011;36992;48.200;12.418;2023-11-18T04:12:35;2.85;;;1.30;;
50976;SDS011;36992;48.200;12.418;2023-11-18T04:15:02;3.72;;;1.60;;
50976;SDS011;36992;48.200;12.418;2023-11-18T04:17:30;2.30;;;1.23;;
50976;SDS011;36992;48.200;12.418;2023-11-18T04:19:57;3.95;;;1.63;;
50976;SDS011;36992;48.200;12.418;2023-11-18T04:22:24;2.55;;;1.48;;
50976;SDS011;36992;48.200;12.418;2023-11-18T04:24:51;2.60;;;1.52;;
50976;SDS011;36992;48.200;12.418;2023-11-18T04:27:18;2.60;;;1.30;;
50976;SDS011;36992;48.200;12.418;2023-11-18T04:29:45;4.93;;;2.20;;
50976;SDS011;36992;48.200;12.418;2023-11-18T04:32:11;2.90;;;1.63;;
50976;SDS011;36992;48.200;12.418;2023-11-18T04:34:39;2.75;;;1.23;;
50976;SDS011;36992;48.200;12.418;2023-11-18T04:37:07;3.30;;;1.40;;
50976;SDS011;36992;48.200;12.418;2023-11-18T04:39:34;2.60;;;1.63;;
50976;SDS011;36992;48.200;12.418;2023-11-18T04:42:03;2.42;;;1.20;;
50976;SDS011;36992;48.200;12.418;2023-11-18T04:44:30;2.85;;;1.75;;
50976;SDS011;36992;48.200;12.418;2023-11-18T04:46:57;1.85;;;1.33;;
50976;SDS011;36992;48.200;12.418;2023-11-18T04:49:24;2.75;;;1.50;;
50976;SDS011;36992;48.200;12.418;2023-11-18T04:51:50;2.92;;;1.65;;
50976;SDS011;36992;48.200;12.418;2023-11-18T04:54:17;2.53;;;1.23;;
50976;SDS011;36992;48.200;12.418;2023-11-18T04:56:44;2.50;;;1.42;;
50976;SDS011;36992;48.200;12.418;2023-11-18T04:59:12;2.50;;;1.38;;
50976;SDS011;36992;48.200;12.418;2023-11-18T05:01:39;3.35;;;1.63;;
50976;SDS011;36992;48.200;12.418;2023-11-18T05:04:05;1.63;;;1.00;;
50976;SDS011;36992;48.200;12.418;2023-11-18T05:06:33;2.60;;;1.50;;
50976;SDS011;36992;48.200;12.418;2023-11-18T05:08:59;2.65;;;1.55;;
50976;SDS011;36992;48.200;12.418;2023-11-18T05:11:26;2.97;;;1.70;;
50976;SDS011;36992;48.200;12.418;2023-11-18T05:13:52;2.17;;;1.40;;
50976;SDS011;36992;48.200;12.418;2023-11-18T05:16:22;1.75;;;1.10;;
50976;SDS011;36992;48.200;12.418;2023-11-18T05:18:49;2.75;;;1.45;;
50976;SDS011;36992;48.200;12.418;2023-11-18T05:21:15;2.85;;;1.50;;
50976;SDS011;36992;48.200;12.418;2023-11-18T05:23:42;2.20;;;1.25;;
50976;SDS011;36992;48.200;12.418;2023-11-18T05:26:08;1.48;;;1.00;;
50976;SDS011;36992;48.200;12.418;2023-11-18T05:28:35;2.25;;;1.10;;
50976;SDS011;36992;48.200;12.418;2023-11-18T05:31:03;1.98;;;1.08;;
50976;SDS011;36992;48.200;12.418;2023-11-18T05:33:32;3.65;;;1.50;;
50976;SDS011;36992;48.200;12.418;2023-11-18T05:36:00;3.10;;;1.80;;
50976;SDS011;36992;48.200;12.418;2023-11-18T05:38:30;3.80;;;1.63;;
50976;SDS011;36992;48.200;12.418;2023-11-18T05:40:59;2.38;;;1.20;;
50976;SDS011;36992;48.200;12.418;2023-11-18T05:43:29;2.47;;;1.35;;
50976;SDS011;36992;48.200;12.418;2023-11-18T05:46:01;2.63;;;1.77;;
50976;SDS011;36992;48.200;12.418;2023-11-18T05:48:47;2.60;;;1.30;;
50976;SDS011;36992;48.200;12.418;2023-11-18T05:51:18;3.70;;;1.60;;
50976;SDS011;36992;48.200;12.418;2023-11-18T05:53:46;2.22;;;1.15;;
50976;SDS011;36992;48.200;12.418;2023-11-18T05:56:13;2.00;;;1.08;;
50976;SDS011;36992;48.200;12.418;2023-11-18T05:58:41;1.73;;;0.93;;
50976;SDS011;36992;48.200;12.418;2023-11-18T06:01:09;2.70;;;1.25;;
50976;SDS011;36992;48.200;12.418;2023-11-18T06:03:36;2.33;;;1.20;;
50976;SDS011;36992;48.200;12.418;2023-11-18T06:06:05;3.63;;;1.88;;
50976;SDS011;36992;48.200;12.418;2023-11-18T06:08:32;1.77;;;1.20;;
50976;SDS011;36992;48.200;12.418;2023-11-18T06:10:59;3.22;;;1.42;;
50976;SDS011;36992;48.200;12.418;2023-11-18T06:13:37;3.10;;;1.30;;
50976;SDS011;36992;48.200;12.418;2023-11-18T06:16:07;2.85;;;1.65;;
50976;SDS011;36992;48.200;12.418;2023-11-18T06:18:34;2.63;;;1.17;;
50976;SDS011;36992;48.200;12.418;2023-11-18T06:21:02;1.67;;;0.90;;
50976;SDS011;36992;48.200;12.418;2023-11-18T06:23:30;1.67;;;0.82;;
50976;SDS011;36992;48.200;12.418;2023-11-18T06:25:57;1.70;;;0.80;;
50976;SDS011;36992;48.200;12.418;2023-11-18T06:28:25;1.90;;;0.98;;
50976;SDS011;36992;48.200;12.418;2023-11-18T06:30:52;1.95;;;1.00;;
50976;SDS011;36992;48.200;12.418;2023-11-18T06:33:18;1.83;;;1.00;;
50976;SDS011;36992;48.200;12.418;2023-11-18T06:35:47;1.60;;;0.70;;
50976;SDS011;36992;48.200;12.418;2023-11-18T06:38:14;1.90;;;0.88;;
50976;SDS011;36992;48.200;12.418;2023-11-18T06:40:45;1.45;;;0.80;;
50976;SDS011;36992;48.200;12.418;2023-11-18T06:43:12;1.88;;;1.10;;
50976;SDS011;36992;48.200;12.418;2023-11-18T06:45:41;2.53;;;0.98;;
50976;SDS011;36992;48.200;12.418;2023-11-18T06:48:09;1.92;;;1.02;;
50976;SDS011;36992;48.200;12.418;2023-11-18T06:50:35;1.95;;;0.80;;
50976;SDS011;36992;48.200;12.418;2023-11-18T06:53:04;2.10;;;1.10;;
50976;SDS011;36992;48.200;12.418;2023-11-18T06:55:33;2.97;;;1.20;;
50976;SDS011;36992;48.200;12.418;2023-11-18T06:58:02;1.60;;;0.80;;
50976;SDS011;36992;48.200;12.418;2023-11-18T07:00:29;1.63;;;0.95;;
50976;SDS011;36992;48.200;12.418;2023-11-18T07:02:55;2.15;;;0.93;;
50976;SDS011;36992;48.200;12.418;2023-11-18T07:05:22;2.60;;;1.33;;
50976;SDS011;36992;48.200;12.418;2023-11-18T07:07:49;2.42;;;1.25;;
50976;SDS011;36992;48.200;12.418;2023-11-18T07:10:15;1.30;;;0.75;;
50976;SDS011;36992;48.200;12.418;2023-11-18T07:12:45;2.20;;;1.20;;
50976;SDS011;36992;48.200;12.418;2023-11-18T07:15:14;1.75;;;1.05;;
50976;SDS011;36992;48.200;12.418;2023-11-18T07:17:40;2.15;;;1.20;;
50976;SDS011;36992;48.200;12.418;2023-11-18T07:20:08;2.03;;;1.20;;
50976;SDS011;36992;48.200;12.418;2023-11-18T07:22:38;2.10;;;0.98;;
50976;SDS011;36992;48.200;12.418;2023-11-18T07:25:06;2.42;;;0.98;;
50976;SDS011;36992;48.200;12.418;2023-11-18T07:27:34;2.40;;;1.38;;
50976;SDS011;36992;48.200;12.418;2023-11-18T07:30:02;2.13;;;0.88;;
50976;SDS011;36992;48.200;12.418;2023-11-18T07:32:32;2.72;;;1.15;;
50976;SDS011;36992;48.200;12.418;2023-11-18T07:34:59;2.47;;;1.48;;
50976;SDS011;36992;48.200;12.418;2023-11-18T07:37:26;2.90;;;1.63;;
50976;SDS011;36992;48.200;12.418;2023-11-18T07:39:53;1.95;;;1.13;;
50976;SDS011;36992;48.200;12.418;2023-11-18T07:42:20;1.70;;;0.93;;
50976;SDS011;36992;48.200;12.418;2023-11-18T07:44:46;3.95;;;1.27;;
50976;SDS011;36992;48.200;12.418;2023-11-18T07:47:14;2.60;;;1.67;;
50976;SDS011;36992;48.200;12.418;2023-11-18T07:49:42;2.92;;;2.05;;
50976;SDS011;36992;48.200;12.418;2023-11-18T07:52:10;2.67;;;1.40;;
50976;SDS011;36992;48.200;12.418;2023-11-18T07:54:37;2.55;;;1.35;;
50976;SDS011;36992;48.200;12.418;2023-11-18T07:57:04;2.65;;;1.38;;
50976;SDS011;36992;48.200;12.418;2023-11-18T07:59:35;2.35;;;0.95;;
50976;SDS011;36992;48.200;12.418;2023-11-18T08:02:01;2.33;;;1.20;;
50976;SDS011;36992;48.200;12.418;2023-11-18T08:04:34;2.45;;;1.30;;
50976;SDS011;36992;48.200;12.418;2023-11-18T08:07:02;2.58;;;1.70;;
50976;SDS011;36992;48.200;12.418;2023-11-18T08:09:29;2.55;;;1.45;;
50976;SDS011;36992;48.200;12.418;2023-11-18T08:11:57;2.75;;;1.65;;
50976;SDS011;36992;48.200;12.418;2023-11-18T08:14:24;2.15;;;1.20;;
50976;SDS011;36992;48.200;12.418;2023-11-18T08:16:50;1.80;;;0.98;;
50976;SDS011;36992;48.200;12.418;2023-11-18T08:19:18;3.13;;;1.10;;
50976;SDS011;36992;48.200;12.418;2023-11-18T08:21:44;2.72;;;1.15;;
50976;SDS011;36992;48.200;12.418;2023-11-18T08:24:12;2.20;;;1.00;;
50976;SDS011;36992;48.200;12.418;2023-11-18T08:26:38;2.13;;;0.98;;
50976;SDS011;36992;48.200;12.418;2023-11-18T08:29:04;1.77;;;1.00;;
50976;SDS011;36992;48.200;12.418;2023-11-18T08:31:33;2.08;;;1.08;;
50976;SDS011;36992;48.200;12.418;2023-11-18T08:34:00;2.58;;;0.80;;
50976;SDS011;36992;48.200;12.418;2023-11-18T08:36:26;2.05;;;1.05;;
50976;SDS011;36992;48.200;12.418;2023-11-18T08:38:53;1.90;;;0.93;;
50976;SDS011;36992;48.200;12.418;2023-11-18T08:41:22;2.30;;;1.10;;
50976;SDS011;36992;48.200;12.418;2023-11-18T08:43:49;2.20;;;1.15;;
50976;SDS011;36992;48.200;12.418;2023-11-18T08:46:17;2.60;;;1.35;;
50976;SDS011;36992;48.200;12.418;2023-11-18T08:48:43;2.45;;;1.17;;
50976;SDS011;36992;48.200;12.418;2023-11-18T08:51:10;1.45;;;0.75;;
50976;SDS011;36992;48.200;12.418;2023-11-18T08:53:38;2.67;;;1.17;;
50976;SDS011;36992;48.200;12.418;2023-11-18T08:56:07;2.35;;;1.00;;
50976;SDS011;36992;48.200;12.418;2023-11-18T08:58:40;1.25;;;0.57;;
50976;SDS011;36992;48.200;12.418;2023-11-18T09:01:07;1.98;;;0.95;;
50976;SDS011;36992;48.200;12.418;2023-11-18T09:03:39;1.55;;;0.73;;
50976;SDS011;36992;48.200;12.418;2023-11-18T09:06:08;1.60;;;0.77;;
50976;SDS011;36992;48.200;12.418;2023-11-18T09:08:42;2.10;;;1.10;;
50976;SDS011;36992;48.200;12.418;2023-11-18T09:11:10;2.08;;;0.98;;
50976;SDS011;36992;48.200;12.418;2023-11-18T09:13:41;2.60;;;1.17;;
50976;SDS011;36992;48.200;12.418;2023-11-18T09:16:10;1.95;;;0.88;;
50976;SDS011;36992;48.200;12.418;2023-11-18T09:18:38;1.88;;;0.77;;
50976;SDS011;36992;48.200;12.418;2023-11-18T09:21:05;1.67;;;0.77;;
50976;SDS011;36992;48.200;12.418;2023-11-18T09:23:32;1.83;;;0.80;;
50976;SDS011;36992;48.200;12.418;2023-11-18T09:26:00;2.03;;;1.00;;
50976;SDS011;36992;48.200;12.418;2023-11-18T09:28:32;2.53;;;1.13;;
50976;SDS011;36992;48.200;12.418;2023-11-18T09:31:01;1.92;;;0.90;;
50976;SDS011;36992;48.200;12.418;2023-11-18T09:33:28;2.28;;;1.05;;
50976;SDS011;36992;48.200;12.418;2023-11-18T09:35:58;2.83;;;1.10;;
50976;SDS011;36992;48.200;12.418;2023-11-18T09:38:25;1.98;;;0.98;;
50976;SDS011;36992;48.200;12.418;2023-11-18T09:40:54;2.58;;;1.27;;
50976;SDS011;36992;48.200;12.418;2023-11-18T09:43:22;2.00;;;1.20;;
50976;SDS011;36992;48.200;12.418;2023-11-18T09:45:53;2.42;;;1.10;;
50976;SDS011;36992;48.200;12.418;2023-11-18T09:48:22;1.60;;;0.77;;
50976;SDS011;36992;48.200;12.418;2023-11-18T09:50:51;1.75;;;0.80;;
50976;SDS011;36992;48.200;12.418;2023-11-18T09:53:19;2.70;;;0.90;;
50976;SDS011;36992;48.200;12.418;2023-11-18T09:55:48;1.85;;;0.80;;
50976;SDS011;36992;48.200;12.418;2023-11-18T09:58:20;1.42;;;0.70;;
50976;SDS011;36992;48.200;12.418;2023-11-18T10:00:49;1.40;;;0.70;;
50976;SDS011;36992;48.200;12.418;2023-11-18T10:03:25;2.53;;;0.95;;
50976;SDS011;36992;48.200;12.418;2023-11-18T10:05:51;2.22;;;1.17;;
50976;SDS011;36992;48.200;12.418;2023-11-18T10:08:20;1.30;;;0.75;;
50976;SDS011;36992;48.200;12.418;2023-11-18T10:10:51;1.60;;;0.70;;
50976;SDS011;36992;48.200;12.418;2023-11-18T10:13:30;3.00;;;1.30;;
50976;SDS011;36992;48.200;12.418;2023-11-18T10:15:59;1.73;;;0.80;;
50976;SDS011;36992;48.200;12.418;2023-11-18T10:18:28;3.15;;;0.82;;
50976;SDS011;36992;48.200;12.418;2023-11-18T10:20:56;1.50;;;0.60;;
50976;SDS011;36992;48.200;12.418;2023-11-18T10:23:25;2.67;;;1.30;;
50976;SDS011;36992;48.200;12.418;2023-11-18T10:25:53;2.10;;;1.20;;
50976;SDS011;36992;48.200;12.418;2023-11-18T10:28:22;2.55;;;1.30;;
50976;SDS011;36992;48.200;12.418;2023-11-18T10:30:49;2.60;;;1.00;;
50976;SDS011;36992;48.200;12.418;2023-11-18T10:33:17;1.23;;;0.57;;
50976;SDS011;36992;48.200;12.418;2023-11-18T10:35:51;3.45;;;0.70;;
50976;SDS011;36992;48.200;12.418;2023-11-18T10:38:20;2.88;;;1.45;;
50976;SDS011;36992;48.200;12.418;2023-11-18T10:40:50;1.33;;;0.60;;
50976;SDS011;36992;48.200;12.418;2023-11-18T10:43:20;1.55;;;0.57;;
50976;SDS011;36992;48.200;12.418;2023-11-18T10:45:49;2.20;;;0.45;;
50976;SDS011;36992;48.200;12.418;2023-11-18T10:48:17;1.05;;;0.50;;
50976;SDS011;36992;48.200;12.418;2023-11-18T10:50:45;3.38;;;0.40;;
50976;SDS011;36992;48.200;12.418;2023-11-18T10:53:14;0.93;;;0.38;;
50976;SDS011;36992;48.200;12.418;2023-11-18T10:55:41;0.93;;;0.40;;
50976;SDS011;36992;48.200;12.418;2023-11-18T10:58:09;0.95;;;0.40;;
50976;SDS011;36992;48.200;12.418;2023-11-18T11:00:48;0.75;;;0.30;;
50976;SDS011;36992;48.200;12.418;2023-11-18T11:03:16;1.00;;;0.30;;
50976;SDS011;36992;48.200;12.418;2023-11-18T11:05:43;0.73;;;0.30;;
50976;SDS011;36992;48.200;12.418;2023-11-18T11:08:11;1.38;;;0.40;;
50976;SDS011;36992;48.200;12.418;2023-11-18T11:10:41;0.90;;;0.30;;
50976;SDS011;36992;48.200;12.418;2023-11-18T11:13:08;1.27;;;0.43;;
50976;SDS011;36992;48.200;12.418;2023-11-18T11:15:39;1.23;;;0.40;;
50976;SDS011;36992;48.200;12.418;2023-11-18T11:18:10;1.17;;;0.40;;
50976;SDS011;36992;48.200;12.418;2023-11-18T11:20:42;1.13;;;0.55;;
50976;SDS011;36992;48.200;12.418;2023-11-18T11:23:17;1.42;;;0.38;;
50976;SDS011;36992;48.200;12.418;2023-11-18T11:25:50;1.75;;;0.22;;
50976;SDS011;36992;48.200;12.418;2023-11-18T11:28:28;1.02;;;0.40;;
50976;SDS011;36992;48.200;12.418;2023-11-18T11:31:03;1.70;;;0.22;;
50976;SDS011;36992;48.200;12.418;2023-11-18T11:33:42;0.73;;;0.20;;
50976;SDS011;36992;48.200;12.418;2023-11-18T11:36:21;0.40;;;0.20;;
50976;SDS011;36992;48.200;12.418;2023-11-18T11:38:57;0.82;;;0.25;;
50976;SDS011;36992;48.200;12.418;2023-11-18T11:41:26;0.45;;;0.20;;
50976;SDS011;36992;48.200;12.418;2023-11-18T11:43:54;1.85;;;0.20;;
50976;SDS011;36992;48.200;12.418;2023-11-18T11:46:24;0.20;;;0.10;;
50976;SDS011;36992;48.200;12.418;2023-11-18T11:48:58;0.98;;;0.20;;
50976;SDS011;36992;48.200;12.418;2023-11-18T11:51:35;0.63;;;0.20;;
50976;SDS011;36992;48.200;12.418;2023-11-18T11:54:09;1.02;;;0.10;;
50976;SDS011;36992;48.200;12.418;2023-11-18T11:56:41;0.22;;;0.10;;
50976;SDS011;36992;48.200;12.418;2023-11-18T11:59:08;0.68;;;0.17;;
50976;SDS011;36992;48.200;12.418;2023-11-18T12:01:36;0.70;;;0.20;;
50976;SDS011;36992;48.200;12.418;2023-11-18T12:04:04;0.47;;;0.13;;
50976;SDS011;36992;48.200;12.418;2023-11-18T12:06:32;0.68;;;0.30;;
50976;SDS011;36992;48.200;12.418;2023-11-18T12:09:00;0.68;;;0.20;;
50976;SDS011;36992;48.200;12.418;2023-11-18T12:11:34;1.92;;;0.40;;
50976;SDS011;36992;48.200;12.418;2023-11-18T12:14:05;1.05;;;0.38;;
50976;SDS011;36992;48.200;12.418;2023-11-18T12:16:58;0.35;;;0.20;;
50976;SDS011;36992;48.200;12.418;2023-11-18T12:19:32;0.77;;;0.35;;
50976;SDS011;36992;48.200;12.418;2023-11-18T12:22:09;0.75;;;0.30;;
50976;SDS011;36992;48.200;12.418;2023-11-18T12:24:42;2.13;;;0.28;;
50976;SDS011;36992;48.200;12.418;2023-11-18T12:27:13;1.75;;;0.50;;
50976;SDS011;36992;48.200;12.418;2023-11-18T12:29:43;0.75;;;0.32;;
50976;SDS011;36992;48.200;12.418;2023-11-18T12:32:10;1.15;;;0.43;;
50976;SDS011;36992;48.200;12.418;2023-11-18T12:34:50;0.88;;;0.50;;
50976;SDS011;36992;48.200;12.418;2023-11-18T12:37:33;1.00;;;0.32;;
50976;SDS011;36992;48.200;12.418;2023-11-18T12:40:23;0.63;;;0.30;;
50976;SDS011;36992;48.200;12.418;2023-11-18T12:43:20;0.88;;;0.30;;
50976;SDS011;36992;48.200;12.418;2023-11-18T12:46:15;0.57;;;0.25;;
50976;SDS011;36992;48.200;12.418;2023-11-18T12:49:12;0.80;;;0.40;;
50976;SDS011;36992;48.200;12.418;2023-11-18T12:51:41;0.70;;;0.30;;
50976;SDS011;36992;48.200;12.418;2023-11-18T12:54:09;0.73;;;0.40;;
50976;SDS011;36992;48.200;12.418;2023-11-18T12:56:37;1.00;;;0.30;;
50976;SDS011;36992;48.200;12.418;2023-11-18T12:59:06;1.40;;;0.50;;
50976;SDS011;36992;48.200;12.418;2023-11-18T13:01:34;1.13;;;0.52;;
50976;SDS011;36992;48.200;12.418;2023-11-18T13:04:02;0.82;;;0.32;;
50976;SDS011;36992;48.200;12.418;2023-11-18T13:06:29;1.42;;;0.55;;
50976;SDS011;36992;48.200;12.418;2023-11-18T13:08:55;3.42;;;0.50;;
50976;SDS011;36992;48.200;12.418;2023-11-18T13:11:23;0.70;;;0.40;;
50976;SDS011;36992;48.200;12.418;2023-11-18T13:13:50;1.05;;;0.50;;
50976;SDS011;36992;48.200;12.418;2023-11-18T13:16:19;1.05;;;0.60;;
50976;SDS011;36992;48.200;12.418;2023-11-18T13:18:47;1.15;;;0.40;;
50976;SDS011;36992;48.200;12.418;2023-11-18T13:21:15;2.22;;;0.80;;
50976;SDS011;36992;48.200;12.418;2023-11-18T13:23:44;1.38;;;0.50;;
50976;SDS011;36992;48.200;12.418;2023-11-18T13:26:13;1.50;;;0.55;;
50976;SDS011;36992;48.200;12.418;2023-11-18T13:28:40;2.28;;;0.50;;
50976;SDS011;36992;48.200;12.418;2023-11-18T13:31:08;1.80;;;0.73;;
50976;SDS011;36992;48.200;12.418;2023-11-18T13:33:38;1.25;;;0.47;;
50976;SDS011;36992;48.200;12.418;2023-11-18T13:36:05;1.90;;;0.50;;
50976;SDS011;36992;48.200;12.418;2023-11-18T13:38:35;0.77;;;0.30;;
50976;SDS011;36992;48.200;12.418;2023-11-18T13:41:03;0.50;;;0.20;;
50976;SDS011;36992;48.200;12.418;2023-11-18T13:43:40;0.93;;;0.30;;
50976;SDS011;36992;48.200;12.418;2023-11-18T13:46:09;0.82;;;0.40;;
50976;SDS011;36992;48.200;12.418;2023-11-18T13:48:38;1.40;;;0.40;;
50976;SDS011;36992;48.200;12.418;2023-11-18T13:51:06;1.17;;;0.40;;
50976;SDS011;36992;48.200;12.418;2023-11-18T13:53:34;0.82;;;0.40;;
50976;SDS011;36992;48.200;12.418;2023-11-18T13:56:01;0.70;;;0.30;;
50976;SDS011;36992;48.200;12.418;2023-11-18T13:58:29;2.08;;;0.77;;
50976;SDS011;36992;48.200;12.418;2023-11-18T14:00:56;4.07;;;0.60;;
50976;SDS011;36992;48.200;12.418;2023-11-18T14:03:22;1.52;;;0.40;;
50976;SDS011;36992;48.200;12.418;2023-11-18T14:05:52;1.15;;;0.40;;
50976;SDS011;36992;48.200;12.418;2023-11-18T14:08:20;1.35;;;0.50;;
50976;SDS011;36992;48.200;12.418;2023-11-18T14:10:47;1.10;;;0.50;;
50976;SDS011;36992;48.200;12.418;2023-11-18T14:13:14;1.38;;;0.30;;
50976;SDS011;36992;48.200;12.418;2023-11-18T14:15:42;1.05;;;0.52;;
50976;SDS011;36992;48.200;12.418;2023-11-18T14:18:11;1.67;;;0.35;;
50976;SDS011;36992;48.200;12.418;2023-11-18T14:20:40;0.75;;;0.40;;
50976;SDS011;36992;48.200;12.418;2023-11-18T14:23:08;1.30;;;0.30;;
50976;SDS011;36992;48.200;12.418;2023-11-18T14:25:36;3.85;;;0.85;;
50976;SDS011;36992;48.200;12.418;2023-11-18T14:28:03;1.20;;;0.40;;
50976;SDS011;36992;48.200;12.418;2023-11-18T14:30:30;1.13;;;0.47;;
50976;SDS011;36992;48.200;12.418;2023-11-18T14:32:57;1.25;;;0.30;;
50976;SDS011;36992;48.200;12.418;2023-11-18T14:35:23;0.90;;;0.30;;
50976;SDS011;36992;48.200;12.418;2023-11-18T14:37:50;1.65;;;0.30;;
50976;SDS011;36992;48.200;12.418;2023-11-18T14:40:18;1.67;;;0.50;;
50976;SDS011;36992;48.200;12.418;2023-11-18T14:42:45;2.17;;;0.47;;
50976;SDS011;36992;48.200;12.418;2023-11-18T14:45:13;1.38;;;0.40;;
50976;SDS011;36992;48.200;12.418;2023-11-18T14:47:40;1.80;;;0.40;;